sensor_id;sensor_type;location;lat;lon;timestamp;P1;durP1;ratioP1;P2;durP2;ratioP2
19879;SDS011;10102;50.828;4.416;2023-09-07T00:00:20;6.90;;;5.22;;
19879;SDS011;10102;50.828;4.416;2023-09-07T00:02:46;7.63;;;5.00;;
19879;SDS011;10102;50.828;4.416;2023-09-07T00:05:12;8.70;;;5.50;;
19879;SDS011;10102;50.828;4.416;2023-09-07T00:07:39;8.20;;;4.90;;
19879;SDS011;10102;50.828;4.416;2023-09-07T00:10:06;10.23;;;4.82;;
19879;SDS011;10102;50.828;4.416;2023-09-07T00:12:33;7.68;;;5.07;;
19879;SDS011;10102;50.828;4.416;2023-09-07T00:14:59;6.70;;;4.85;;
19879;SDS011;10102;50.828;4.416;2023-09-07T00:17:25;10.02;;;5.13;;
19879;SDS011;10102;50.828;4.416;2023-09-07T00:19:52;9.57;;;5.00;;
19879;SDS011;10102;50.828;4.416;2023-09-07T00:22:19;9.63;;;4.80;;
19879;SDS011;10102;50.828;4.416;2023-09-07T00:24:45;7.47;;;5.00;;
19879;SDS011;10102;50.828;4.416;2023-09-07T00:27:11;6.55;;;4.68;;
19879;SDS011;10102;50.828;4.416;2023-09-07T00:29:37;9.30;;;5.10;;
19879;SDS011;10102;50.828;4.416;2023-09-07T00:32:04;6.53;;;4.60;;
19879;SDS011;10102;50.828;4.416;2023-09-07T00:34:30;11.93;;;5.60;;
19879;SDS011;10102;50.828;4.416;2023-09-07T00:36:56;7.05;;;4.63;;
19879;SDS011;10102;50.828;4.416;2023-09-07T00:39:29;9.50;;;5.25;;
19879;SDS011;10102;50.828;4.416;2023-09-07T00:41:55;10.38;;;5.22;;
19879;SDS011;10102;50.828;4.416;2023-09-07T00:44:23;8.65;;;5.32;;
19879;SDS011;10102;50.828;4.416;2023-09-07T00:46:49;7.28;;;4.88;;
19879;SDS011;10102;50.828;4.416;2023-09-07T00:49:15;8.40;;;4.65;;
19879;SDS011;10102;50.828;4.416;2023-09-07T00:51:41;10.68;;;5.15;;
19879;SDS011;10102;50.828;4.416;2023-09-07T00:54:07;6.40;;;4.88;;
19879;SDS011;10102;50.828;4.416;2023-09-07T00:56:33;10.93;;;5.03;;
19879;SDS011;10102;50.828;4.416;2023-09-07T00:59:00;6.57;;;4.57;;
19879;SDS011;10102;50.828;4.416;2023-09-07T01:01:27;8.38;;;4.75;;
19879;SDS011;10102;50.828;4.416;2023-09-07T01:03:55;9.57;;;5.13;;
19879;SDS011;10102;50.828;4.416;2023-09-07T01:06:22;10.73;;;5.22;;
19879;SDS011;10102;50.828;4.416;2023-09-07T01:08:59;6.32;;;4.75;;
19879;SDS011;10102;50.828;4.416;2023-09-07T01:11:36;8.70;;;4.80;;
19879;SDS011;10102;50.828;4.416;2023-09-07T01:14:03;15.40;;;5.97;;
19879;SDS011;10102;50.828;4.416;2023-09-07T01:16:29;7.78;;;4.88;;
19879;SDS011;10102;50.828;4.416;2023-09-07T01:19:07;7.57;;;5.10;;
19879;SDS011;10102;50.828;4.416;2023-09-07T01:21:35;9.88;;;4.38;;
19879;SDS011;10102;50.828;4.416;2023-09-07T01:24:03;7.55;;;5.10;;
19879;SDS011;10102;50.828;4.416;2023-09-07T01:26:31;8.75;;;4.72;;
19879;SDS011;10102;50.828;4.416;2023-09-07T01:28:57;6.78;;;4.50;;
19879;SDS011;10102;50.828;4.416;2023-09-07T01:31:23;8.23;;;4.63;;
19879;SDS011;10102;50.828;4.416;2023-09-07T01:33:49;10.20;;;4.45;;
19879;SDS011;10102;50.828;4.416;2023-09-07T01:36:14;12.13;;;5.03;;
19879;SDS011;10102;50.828;4.416;2023-09-07T01:38:43;7.78;;;5.28;;
19879;SDS011;10102;50.828;4.416;2023-09-07T01:41:08;10.07;;;5.43;;
19879;SDS011;10102;50.828;4.416;2023-09-07T01:43:35;8.65;;;4.95;;
19879;SDS011;10102;50.828;4.416;2023-09-07T01:46:02;6.82;;;4.90;;
19879;SDS011;10102;50.828;4.416;2023-09-07T01:48:28;9.18;;;4.80;;
19879;SDS011;10102;50.828;4.416;2023-09-07T01:50:54;9.68;;;4.53;;
19879;SDS011;10102;50.828;4.416;2023-09-07T01:53:20;8.75;;;5.18;;
19879;SDS011;10102;50.828;4.416;2023-09-07T01:55:46;7.72;;;4.80;;
19879;SDS011;10102;50.828;4.416;2023-09-07T01:58:13;11.20;;;5.05;;
19879;SDS011;10102;50.828;4.416;2023-09-07T02:00:41;8.02;;;4.60;;
19879;SDS011;10102;50.828;4.416;2023-09-07T02:03:06;8.80;;;4.75;;
19879;SDS011;10102;50.828;4.416;2023-09-07T02:05:33;10.95;;;5.75;;
19879;SDS011;10102;50.828;4.416;2023-09-07T02:07:58;6.10;;;5.40;;
19879;SDS011;10102;50.828;4.416;2023-09-07T02:10:24;9.15;;;4.93;;
19879;SDS011;10102;50.828;4.416;2023-09-07T02:12:51;9.02;;;4.78;;
19879;SDS011;10102;50.828;4.416;2023-09-07T02:15:17;12.93;;;5.15;;
19879;SDS011;10102;50.828;4.416;2023-09-07T02:17:42;9.20;;;5.45;;
19879;SDS011;10102;50.828;4.416;2023-09-07T02:20:10;6.85;;;4.97;;
19879;SDS011;10102;50.828;4.416;2023-09-07T02:22:37;7.57;;;5.18;;
19879;SDS011;10102;50.828;4.416;2023-09-07T02:25:03;8.95;;;4.97;;
19879;SDS011;10102;50.828;4.416;2023-09-07T02:27:33;12.27;;;4.50;;
19879;SDS011;10102;50.828;4.416;2023-09-07T02:30:00;6.72;;;4.95;;
19879;SDS011;10102;50.828;4.416;2023-09-07T02:32:27;6.45;;;5.22;;
19879;SDS011;10102;50.828;4.416;2023-09-07T02:34:53;12.75;;;4.63;;
19879;SDS011;10102;50.828;4.416;2023-09-07T02:37:19;6.90;;;4.95;;
19879;SDS011;10102;50.828;4.416;2023-09-07T02:39:44;8.10;;;5.10;;
19879;SDS011;10102;50.828;4.416;2023-09-07T02:42:10;8.40;;;4.45;;
19879;SDS011;10102;50.828;4.416;2023-09-07T02:44:36;5.90;;;4.55;;
19879;SDS011;10102;50.828;4.416;2023-09-07T02:47:03;7.43;;;4.55;;
19879;SDS011;10102;50.828;4.416;2023-09-07T02:49:31;8.13;;;4.93;;
19879;SDS011;10102;50.828;4.416;2023-09-07T02:51:57;7.05;;;5.22;;
19879;SDS011;10102;50.828;4.416;2023-09-07T02:54:23;8.90;;;5.15;;
19879;SDS011;10102;50.828;4.416;2023-09-07T02:56:50;8.52;;;4.45;;
19879;SDS011;10102;50.828;4.416;2023-09-07T02:59:16;6.28;;;4.93;;
19879;SDS011;10102;50.828;4.416;2023-09-07T03:01:42;10.93;;;4.95;;
19879;SDS011;10102;50.828;4.416;2023-09-07T03:04:08;7.03;;;4.78;;
19879;SDS011;10102;50.828;4.416;2023-09-07T03:06:34;6.82;;;4.60;;
19879;SDS011;10102;50.828;4.416;2023-09-07T03:09:00;9.32;;;4.82;;
19879;SDS011;10102;50.828;4.416;2023-09-07T03:11:26;11.77;;;5.07;;
19879;SDS011;10102;50.828;4.416;2023-09-07T03:13:52;7.78;;;5.00;;
19879;SDS011;10102;50.828;4.416;2023-09-07T03:16:17;7.32;;;4.80;;
19879;SDS011;10102;50.828;4.416;2023-09-07T03:18:45;10.27;;;5.20;;
19879;SDS011;10102;50.828;4.416;2023-09-07T03:21:11;7.18;;;5.30;;
19879;SDS011;10102;50.828;4.416;2023-09-07T03:23:37;9.18;;;5.40;;
19879;SDS011;10102;50.828;4.416;2023-09-07T03:26:09;6.93;;;4.70;;
19879;SDS011;10102;50.828;4.416;2023-09-07T03:28:37;7.10;;;5.05;;
19879;SDS011;10102;50.828;4.416;2023-09-07T03:31:02;9.75;;;5.15;;
19879;SDS011;10102;50.828;4.416;2023-09-07T03:33:29;8.38;;;5.15;;
19879;SDS011;10102;50.828;4.416;2023-09-07T03:35:55;8.85;;;5.22;;
19879;SDS011;10102;50.828;4.416;2023-09-07T03:38:24;7.03;;;4.63;;
19879;SDS011;10102;50.828;4.416;2023-09-07T03:40:52;6.97;;;4.93;;
19879;SDS011;10102;50.828;4.416;2023-09-07T03:43:18;7.95;;;5.13;;
19879;SDS011;10102;50.828;4.416;2023-09-07T03:45:43;11.05;;;5.43;;
19879;SDS011;10102;50.828;4.416;2023-09-07T03:48:09;7.18;;;5.32;;
19879;SDS011;10102;50.828;4.416;2023-09-07T03:50:35;13.63;;;5.25;;
19879;SDS011;10102;50.828;4.416;2023-09-07T03:53:02;9.65;;;4.97;;
19879;SDS011;10102;50.828;4.416;2023-09-07T03:55:28;6.50;;;5.22;;
19879;SDS011;10102;50.828;4.416;2023-09-07T03:57:54;5.65;;;4.88;;
19879;SDS011;10102;50.828;4.416;2023-09-07T04:00:20;12.20;;;5.95;;
19879;SDS011;10102;50.828;4.416;2023-09-07T04:02:46;9.38;;;5.00;;
19879;SDS011;10102;50.828;4.416;2023-09-07T04:05:12;7.55;;;5.28;;
19879;SDS011;10102;50.828;4.416;2023-09-07T04:07:38;7.00;;;5.30;;
19879;SDS011;10102;50.828;4.416;2023-09-07T04:10:06;6.97;;;5.10;;
19879;SDS011;10102;50.828;4.416;2023-09-07T04:12:33;8.02;;;5.50;;
19879;SDS011;10102;50.828;4.416;2023-09-07T04:15:03;9.65;;;5.10;;
19879;SDS011;10102;50.828;4.416;2023-09-07T04:17:29;7.40;;;4.85;;
19879;SDS011;10102;50.828;4.416;2023-09-07T04:19:55;8.50;;;5.72;;
19879;SDS011;10102;50.828;4.416;2023-09-07T04:22:21;6.80;;;5.25;;
19879;SDS011;10102;50.828;4.416;2023-09-07T04:24:49;6.40;;;4.82;;
19879;SDS011;10102;50.828;4.416;2023-09-07T04:27:15;10.02;;;5.20;;
19879;SDS011;10102;50.828;4.416;2023-09-07T04:29:40;10.55;;;5.40;;
19879;SDS011;10102;50.828;4.416;2023-09-07T04:32:06;7.30;;;4.78;;
19879;SDS011;10102;50.828;4.416;2023-09-07T04:34:32;8.95;;;5.35;;
19879;SDS011;10102;50.828;4.416;2023-09-07T04:36:59;7.47;;;5.13;;
19879;SDS011;10102;50.828;4.416;2023-09-07T04:39:26;10.07;;;5.15;;
19879;SDS011;10102;50.828;4.416;2023-09-07T04:41:52;9.07;;;5.47;;
19879;SDS011;10102;50.828;4.416;2023-09-07T04:44:18;8.02;;;5.20;;
19879;SDS011;10102;50.828;4.416;2023-09-07T04:46:45;7.07;;;5.47;;
19879;SDS011;10102;50.828;4.416;2023-09-07T04:49:11;7.25;;;5.47;;
19879;SDS011;10102;50.828;4.416;2023-09-07T04:51:42;9.20;;;4.97;;
19879;SDS011;10102;50.828;4.416;2023-09-07T04:54:09;10.52;;;5.38;;
19879;SDS011;10102;50.828;4.416;2023-09-07T04:56:35;6.10;;;5.13;;
19879;SDS011;10102;50.828;4.416;2023-09-07T04:59:01;9.13;;;5.68;;
19879;SDS011;10102;50.828;4.416;2023-09-07T05:01:27;7.15;;;5.07;;
19879;SDS011;10102;50.828;4.416;2023-09-07T05:03:53;12.48;;;5.57;;
19879;SDS011;10102;50.828;4.416;2023-09-07T05:06:20;11.75;;;5.32;;
19879;SDS011;10102;50.828;4.416;2023-09-07T05:08:48;8.88;;;5.10;;
19879;SDS011;10102;50.828;4.416;2023-09-07T05:11:15;11.35;;;5.45;;
19879;SDS011;10102;50.828;4.416;2023-09-07T05:13:40;7.55;;;4.90;;
19879;SDS011;10102;50.828;4.416;2023-09-07T05:16:06;9.75;;;5.32;;
19879;SDS011;10102;50.828;4.416;2023-09-07T05:18:32;7.30;;;5.35;;
19879;SDS011;10102;50.828;4.416;2023-09-07T05:20:58;8.75;;;5.78;;
19879;SDS011;10102;50.828;4.416;2023-09-07T05:23:25;7.82;;;5.03;;
19879;SDS011;10102;50.828;4.416;2023-09-07T05:25:52;11.55;;;5.55;;
19879;SDS011;10102;50.828;4.416;2023-09-07T05:28:19;8.70;;;5.68;;
19879;SDS011;10102;50.828;4.416;2023-09-07T05:30:47;13.75;;;5.38;;
19879;SDS011;10102;50.828;4.416;2023-09-07T05:33:14;11.40;;;5.30;;
19879;SDS011;10102;50.828;4.416;2023-09-07T05:35:42;7.32;;;5.43;;
19879;SDS011;10102;50.828;4.416;2023-09-07T05:38:11;6.55;;;4.75;;
19879;SDS011;10102;50.828;4.416;2023-09-07T05:40:38;11.73;;;5.47;;
19879;SDS011;10102;50.828;4.416;2023-09-07T05:43:05;8.43;;;5.75;;
19879;SDS011;10102;50.828;4.416;2023-09-07T05:45:34;7.30;;;5.13;;
19879;SDS011;10102;50.828;4.416;2023-09-07T05:48:02;10.82;;;5.65;;
19879;SDS011;10102;50.828;4.416;2023-09-07T05:50:28;8.15;;;5.95;;
19879;SDS011;10102;50.828;4.416;2023-09-07T05:52:54;9.10;;;5.30;;
19879;SDS011;10102;50.828;4.416;2023-09-07T05:55:20;13.40;;;6.07;;
19879;SDS011;10102;50.828;4.416;2023-09-07T05:57:46;11.13;;;5.95;;
19879;SDS011;10102;50.828;4.416;2023-09-07T06:00:14;9.85;;;6.32;;
19879;SDS011;10102;50.828;4.416;2023-09-07T06:02:42;10.73;;;5.55;;
19879;SDS011;10102;50.828;4.416;2023-09-07T06:05:08;7.88;;;5.68;;
19879;SDS011;10102;50.828;4.416;2023-09-07T06:07:35;7.95;;;5.93;;
19879;SDS011;10102;50.828;4.416;2023-09-07T06:10:01;7.38;;;5.03;;
19879;SDS011;10102;50.828;4.416;2023-09-07T06:12:27;9.27;;;6.50;;
19879;SDS011;10102;50.828;4.416;2023-09-07T06:14:53;13.23;;;6.75;;
19879;SDS011;10102;50.828;4.416;2023-09-07T06:17:19;16.73;;;6.45;;
19879;SDS011;10102;50.828;4.416;2023-09-07T06:19:45;14.30;;;7.20;;
19879;SDS011;10102;50.828;4.416;2023-09-07T06:22:11;16.27;;;7.90;;
19879;SDS011;10102;50.828;4.416;2023-09-07T06:24:37;11.63;;;7.50;;
19879;SDS011;10102;50.828;4.416;2023-09-07T06:27:03;8.20;;;6.18;;
19879;SDS011;10102;50.828;4.416;2023-09-07T06:29:29;10.82;;;5.93;;
19879;SDS011;10102;50.828;4.416;2023-09-07T06:31:55;10.50;;;6.07;;
19879;SDS011;10102;50.828;4.416;2023-09-07T06:34:20;8.27;;;5.85;;
19879;SDS011;10102;50.828;4.416;2023-09-07T06:36:46;10.80;;;6.50;;
19879;SDS011;10102;50.828;4.416;2023-09-07T06:39:14;11.20;;;6.57;;
19879;SDS011;10102;50.828;4.416;2023-09-07T06:41:40;9.18;;;6.53;;
19879;SDS011;10102;50.828;4.416;2023-09-07T06:44:07;14.15;;;6.80;;
19879;SDS011;10102;50.828;4.416;2023-09-07T06:46:33;8.43;;;6.50;;
19879;SDS011;10102;50.828;4.416;2023-09-07T06:48:59;14.18;;;6.75;;
19879;SDS011;10102;50.828;4.416;2023-09-07T06:51:24;12.70;;;7.13;;
19879;SDS011;10102;50.828;4.416;2023-09-07T06:53:51;10.95;;;7.38;;
19879;SDS011;10102;50.828;4.416;2023-09-07T06:56:17;12.95;;;6.60;;
19879;SDS011;10102;50.828;4.416;2023-09-07T06:58:43;14.23;;;6.97;;
19879;SDS011;10102;50.828;4.416;2023-09-07T07:01:10;11.60;;;6.82;;
19879;SDS011;10102;50.828;4.416;2023-09-07T07:03:36;17.00;;;6.38;;
19879;SDS011;10102;50.828;4.416;2023-09-07T07:06:02;10.32;;;6.88;;
19879;SDS011;10102;50.828;4.416;2023-09-07T07:08:28;11.90;;;6.93;;
19879;SDS011;10102;50.828;4.416;2023-09-07T07:10:54;11.77;;;7.05;;
19879;SDS011;10102;50.828;4.416;2023-09-07T07:13:20;9.38;;;6.32;;
19879;SDS011;10102;50.828;4.416;2023-09-07T07:15:45;12.20;;;6.60;;
19879;SDS011;10102;50.828;4.416;2023-09-07T07:18:11;11.45;;;6.18;;
19879;SDS011;10102;50.828;4.416;2023-09-07T07:20:39;9.32;;;6.38;;
19879;SDS011;10102;50.828;4.416;2023-09-07T07:23:05;14.07;;;6.75;;
19879;SDS011;10102;50.828;4.416;2023-09-07T07:25:34;11.93;;;5.63;;
19879;SDS011;10102;50.828;4.416;2023-09-07T07:28:00;13.77;;;5.43;;
19879;SDS011;10102;50.828;4.416;2023-09-07T07:30:31;14.82;;;5.65;;
19879;SDS011;10102;50.828;4.416;2023-09-07T07:33:02;7.35;;;5.60;;
19879;SDS011;10102;50.828;4.416;2023-09-07T07:35:29;10.98;;;6.13;;
19879;SDS011;10102;50.828;4.416;2023-09-07T07:37:56;11.45;;;6.20;;
19879;SDS011;10102;50.828;4.416;2023-09-07T07:40:22;9.63;;;5.43;;
19879;SDS011;10102;50.828;4.416;2023-09-07T07:42:48;7.57;;;6.00;;
19879;SDS011;10102;50.828;4.416;2023-09-07T07:45:16;7.40;;;5.30;;
19879;SDS011;10102;50.828;4.416;2023-09-07T07:47:45;8.77;;;5.32;;
19879;SDS011;10102;50.828;4.416;2023-09-07T07:50:11;9.07;;;5.50;;
19879;SDS011;10102;50.828;4.416;2023-09-07T07:52:37;9.27;;;5.28;;
19879;SDS011;10102;50.828;4.416;2023-09-07T07:55:03;8.35;;;5.38;;
19879;SDS011;10102;50.828;4.416;2023-09-07T07:57:29;9.68;;;4.72;;
19879;SDS011;10102;50.828;4.416;2023-09-07T07:59:58;8.13;;;5.00;;
19879;SDS011;10102;50.828;4.416;2023-09-07T08:02:24;10.65;;;5.35;;
19879;SDS011;10102;50.828;4.416;2023-09-07T08:04:52;7.32;;;5.03;;
19879;SDS011;10102;50.828;4.416;2023-09-07T08:07:19;6.50;;;4.72;;
19879;SDS011;10102;50.828;4.416;2023-09-07T08:09:47;10.70;;;5.22;;
19879;SDS011;10102;50.828;4.416;2023-09-07T08:12:14;8.05;;;4.75;;
19879;SDS011;10102;50.828;4.416;2023-09-07T08:14:39;6.82;;;5.07;;
19879;SDS011;10102;50.828;4.416;2023-09-07T08:17:05;6.88;;;4.43;;
19879;SDS011;10102;50.828;4.416;2023-09-07T08:19:33;5.97;;;4.80;;
19879;SDS011;10102;50.828;4.416;2023-09-07T08:21:59;7.13;;;4.22;;
19879;SDS011;10102;50.828;4.416;2023-09-07T08:24:28;6.68;;;4.78;;
19879;SDS011;10102;50.828;4.416;2023-09-07T08:26:57;9.57;;;4.50;;
19879;SDS011;10102;50.828;4.416;2023-09-07T08:29:26;9.23;;;4.50;;
19879;SDS011;10102;50.828;4.416;2023-09-07T08:31:56;9.45;;;4.85;;
19879;SDS011;10102;50.828;4.416;2023-09-07T08:34:23;6.15;;;3.55;;
19879;SDS011;10102;50.828;4.416;2023-09-07T08:36:49;7.45;;;3.58;;
19879;SDS011;10102;50.828;4.416;2023-09-07T08:39:16;6.25;;;4.32;;
19879;SDS011;10102;50.828;4.416;2023-09-07T08:41:42;5.68;;;3.90;;
19879;SDS011;10102;50.828;4.416;2023-09-07T08:44:09;9.27;;;4.28;;
19879;SDS011;10102;50.828;4.416;2023-09-07T08:46:36;8.57;;;4.10;;
19879;SDS011;10102;50.828;4.416;2023-09-07T08:49:03;12.15;;;3.60;;
19879;SDS011;10102;50.828;4.416;2023-09-07T08:51:29;10.18;;;3.60;;
19879;SDS011;10102;50.828;4.416;2023-09-07T08:53:57;6.25;;;4.20;;
19879;SDS011;10102;50.828;4.416;2023-09-07T08:56:23;7.63;;;3.50;;
19879;SDS011;10102;50.828;4.416;2023-09-07T08:58:49;6.57;;;3.78;;
19879;SDS011;10102;50.828;4.416;2023-09-07T09:01:15;6.53;;;3.60;;
19879;SDS011;10102;50.828;4.416;2023-09-07T09:03:42;8.18;;;3.70;;
19879;SDS011;10102;50.828;4.416;2023-09-07T09:06:08;4.10;;;3.70;;
19879;SDS011;10102;50.828;4.416;2023-09-07T09:08:42;6.70;;;4.38;;
19879;SDS011;10102;50.828;4.416;2023-09-07T09:11:14;4.80;;;3.92;;
19879;SDS011;10102;50.828;4.416;2023-09-07T09:13:41;7.15;;;4.07;;
19879;SDS011;10102;50.828;4.416;2023-09-07T09:16:07;5.93;;;3.90;;
19879;SDS011;10102;50.828;4.416;2023-09-07T09:18:34;5.57;;;3.72;;
19879;SDS011;10102;50.828;4.416;2023-09-07T09:21:00;4.45;;;3.80;;
19879;SDS011;10102;50.828;4.416;2023-09-07T09:23:34;9.98;;;3.85;;
19879;SDS011;10102;50.828;4.416;2023-09-07T09:26:15;5.60;;;3.45;;
19879;SDS011;10102;50.828;4.416;2023-09-07T09:28:41;7.13;;;4.13;;
19879;SDS011;10102;50.828;4.416;2023-09-07T09:31:11;10.38;;;3.78;;
19879;SDS011;10102;50.828;4.416;2023-09-07T09:33:50;5.07;;;3.95;;
19879;SDS011;10102;50.828;4.416;2023-09-07T09:36:32;5.47;;;3.90;;
19879;SDS011;10102;50.828;4.416;2023-09-07T09:39:00;7.60;;;3.20;;
19879;SDS011;10102;50.828;4.416;2023-09-07T09:41:25;6.00;;;4.18;;
19879;SDS011;10102;50.828;4.416;2023-09-07T09:43:53;6.20;;;3.88;;
19879;SDS011;10102;50.828;4.416;2023-09-07T09:46:22;5.93;;;4.10;;
19879;SDS011;10102;50.828;4.416;2023-09-07T09:48:49;5.90;;;4.28;;
19879;SDS011;10102;50.828;4.416;2023-09-07T09:51:16;6.45;;;4.05;;
19879;SDS011;10102;50.828;4.416;2023-09-07T09:53:44;8.65;;;4.07;;
19879;SDS011;10102;50.828;4.416;2023-09-07T09:56:10;6.30;;;4.05;;
19879;SDS011;10102;50.828;4.416;2023-09-07T09:58:36;5.88;;;4.00;;
19879;SDS011;10102;50.828;4.416;2023-09-07T10:01:02;5.30;;;3.80;;
19879;SDS011;10102;50.828;4.416;2023-09-07T10:03:31;6.13;;;3.78;;
19879;SDS011;10102;50.828;4.416;2023-09-07T10:06:17;7.40;;;4.22;;
19879;SDS011;10102;50.828;4.416;2023-09-07T10:08:58;9.15;;;3.97;;
19879;SDS011;10102;50.828;4.416;2023-09-07T10:11:33;5.70;;;3.67;;
19879;SDS011;10102;50.828;4.416;2023-09-07T10:14:04;4.82;;;4.00;;
19879;SDS011;10102;50.828;4.416;2023-09-07T10:16:41;4.57;;;3.60;;
19879;SDS011;10102;50.828;4.416;2023-09-07T10:19:16;8.68;;;4.47;;
19879;SDS011;10102;50.828;4.416;2023-09-07T10:21:46;4.78;;;4.07;;
19879;SDS011;10102;50.828;4.416;2023-09-07T10:24:22;9.82;;;4.13;;
19879;SDS011;10102;50.828;4.416;2023-09-07T10:27:02;11.65;;;4.50;;
19879;SDS011;10102;50.828;4.416;2023-09-07T10:29:40;6.43;;;4.13;;
19879;SDS011;10102;50.828;4.416;2023-09-07T10:32:07;12.57;;;3.58;;
19879;SDS011;10102;50.828;4.416;2023-09-07T10:34:35;8.35;;;4.13;;
19879;SDS011;10102;50.828;4.416;2023-09-07T10:37:08;3.78;;;3.38;;
19879;SDS011;10102;50.828;4.416;2023-09-07T10:39:39;6.65;;;3.80;;
19879;SDS011;10102;50.828;4.416;2023-09-07T10:42:30;12.27;;;3.92;;
19879;SDS011;10102;50.828;4.416;2023-09-07T10:44:55;7.13;;;4.13;;
19879;SDS011;10102;50.828;4.416;2023-09-07T10:47:21;10.05;;;4.35;;
19879;SDS011;10102;50.828;4.416;2023-09-07T10:49:47;7.00;;;3.85;;
19879;SDS011;10102;50.828;4.416;2023-09-07T10:52:15;13.02;;;4.10;;
19879;SDS011;10102;50.828;4.416;2023-09-07T10:54:41;4.88;;;4.00;;
19879;SDS011;10102;50.828;4.416;2023-09-07T10:57:07;7.15;;;3.90;;
19879;SDS011;10102;50.828;4.416;2023-09-07T10:59:35;5.07;;;3.28;;
19879;SDS011;10102;50.828;4.416;2023-09-07T11:02:04;5.00;;;3.60;;
19879;SDS011;10102;50.828;4.416;2023-09-07T11:04:31;5.75;;;3.40;;
19879;SDS011;10102;50.828;4.416;2023-09-07T11:06:57;6.22;;;3.20;;
19879;SDS011;10102;50.828;4.416;2023-09-07T11:09:23;5.30;;;3.33;;
19879;SDS011;10102;50.828;4.416;2023-09-07T11:11:50;4.53;;;3.72;;
19879;SDS011;10102;50.828;4.416;2023-09-07T11:14:16;5.32;;;3.17;;
19879;SDS011;10102;50.828;4.416;2023-09-07T11:16:42;3.72;;;3.40;;
19879;SDS011;10102;50.828;4.416;2023-09-07T11:19:08;3.80;;;2.90;;
19879;SDS011;10102;50.828;4.416;2023-09-07T11:21:34;3.78;;;3.03;;
19879;SDS011;10102;50.828;4.416;2023-09-07T11:24:01;10.75;;;3.55;;
19879;SDS011;10102;50.828;4.416;2023-09-07T11:26:40;4.68;;;3.20;;
19879;SDS011;10102;50.828;4.416;2023-09-07T11:29:14;4.65;;;3.13;;
19879;SDS011;10102;50.828;4.416;2023-09-07T11:31:41;2.85;;;2.60;;
19879;SDS011;10102;50.828;4.416;2023-09-07T11:34:14;4.13;;;2.92;;
19879;SDS011;10102;50.828;4.416;2023-09-07T11:36:42;5.30;;;3.00;;
19879;SDS011;10102;50.828;4.416;2023-09-07T11:39:09;7.97;;;2.80;;
19879;SDS011;10102;50.828;4.416;2023-09-07T11:41:42;3.30;;;3.00;;
19879;SDS011;10102;50.828;4.416;2023-09-07T11:44:08;7.57;;;3.22;;
19879;SDS011;10102;50.828;4.416;2023-09-07T11:46:34;10.15;;;2.70;;
19879;SDS011;10102;50.828;4.416;2023-09-07T11:49:02;4.05;;;3.03;;
19879;SDS011;10102;50.828;4.416;2023-09-07T11:51:30;4.65;;;2.97;;
19879;SDS011;10102;50.828;4.416;2023-09-07T11:53:56;3.67;;;2.83;;
19879;SDS011;10102;50.828;4.416;2023-09-07T11:56:23;7.38;;;2.83;;
19879;SDS011;10102;50.828;4.416;2023-09-07T11:58:48;6.30;;;3.13;;
19879;SDS011;10102;50.828;4.416;2023-09-07T12:01:14;5.35;;;3.10;;
19879;SDS011;10102;50.828;4.416;2023-09-07T12:03:44;7.53;;;3.20;;
19879;SDS011;10102;50.828;4.416;2023-09-07T12:06:10;4.78;;;2.85;;
19879;SDS011;10102;50.828;4.416;2023-09-07T12:08:37;5.28;;;3.30;;
19879;SDS011;10102;50.828;4.416;2023-09-07T12:11:02;4.43;;;3.05;;
19879;SDS011;10102;50.828;4.416;2023-09-07T12:13:28;6.95;;;3.33;;
19879;SDS011;10102;50.828;4.416;2023-09-07T12:15:54;3.85;;;3.45;;
19879;SDS011;10102;50.828;4.416;2023-09-07T12:18:26;3.45;;;3.15;;
19879;SDS011;10102;50.828;4.416;2023-09-07T12:20:51;3.90;;;3.10;;
19879;SDS011;10102;50.828;4.416;2023-09-07T12:23:18;7.68;;;2.97;;
19879;SDS011;10102;50.828;4.416;2023-09-07T12:25:45;5.32;;;3.08;;
19879;SDS011;10102;50.828;4.416;2023-09-07T12:28:16;4.13;;;3.10;;
19879;SDS011;10102;50.828;4.416;2023-09-07T12:30:42;6.78;;;3.17;;
19879;SDS011;10102;50.828;4.416;2023-09-07T12:33:11;6.97;;;3.45;;
19879;SDS011;10102;50.828;4.416;2023-09-07T12:35:37;4.90;;;2.85;;
19879;SDS011;10102;50.828;4.416;2023-09-07T12:38:05;10.88;;;3.53;;
19879;SDS011;10102;50.828;4.416;2023-09-07T12:40:32;9.57;;;3.15;;
19879;SDS011;10102;50.828;4.416;2023-09-07T12:42:58;5.22;;;3.20;;
19879;SDS011;10102;50.828;4.416;2023-09-07T12:45:24;7.75;;;3.40;;
19879;SDS011;10102;50.828;4.416;2023-09-07T12:47:50;4.13;;;2.85;;
19879;SDS011;10102;50.828;4.416;2023-09-07T12:50:16;5.20;;;3.00;;
19879;SDS011;10102;50.828;4.416;2023-09-07T12:52:41;11.75;;;3.58;;
19879;SDS011;10102;50.828;4.416;2023-09-07T12:55:08;4.65;;;3.10;;
19879;SDS011;10102;50.828;4.416;2023-09-07T13:00:03;4.93;;;3.05;;
19879;SDS011;10102;50.828;4.416;2023-09-07T13:02:31;7.68;;;4.03;;
19879;SDS011;10102;50.828;4.416;2023-09-07T13:04:58;3.92;;;3.10;;
19879;SDS011;10102;50.828;4.416;2023-09-07T13:07:24;8.75;;;3.15;;
19879;SDS011;10102;50.828;4.416;2023-09-07T13:09:50;6.50;;;3.47;;
19879;SDS011;10102;50.828;4.416;2023-09-07T13:12:15;4.85;;;3.35;;
19879;SDS011;10102;50.828;4.416;2023-09-07T13:14:41;4.63;;;3.42;;
19879;SDS011;10102;50.828;4.416;2023-09-07T13:17:11;4.10;;;3.58;;
19879;SDS011;10102;50.828;4.416;2023-09-07T13:19:41;9.77;;;3.70;;
19879;SDS011;10102;50.828;4.416;2023-09-07T13:22:08;5.95;;;3.20;;
19879;SDS011;10102;50.828;4.416;2023-09-07T13:27:03;7.72;;;3.72;;
19879;SDS011;10102;50.828;4.416;2023-09-07T13:29:29;5.45;;;3.20;;
19879;SDS011;10102;50.828;4.416;2023-09-07T13:31:56;9.23;;;3.38;;
19879;SDS011;10102;50.828;4.416;2023-09-07T13:34:24;6.63;;;3.33;;
19879;SDS011;10102;50.828;4.416;2023-09-07T13:36:50;4.95;;;3.88;;
19879;SDS011;10102;50.828;4.416;2023-09-07T13:39:16;6.05;;;3.65;;
19879;SDS011;10102;50.828;4.416;2023-09-07T13:41:43;3.97;;;3.38;;
19879;SDS011;10102;50.828;4.416;2023-09-07T13:44:13;7.45;;;3.67;;
19879;SDS011;10102;50.828;4.416;2023-09-07T13:46:40;6.15;;;3.50;;
19879;SDS011;10102;50.828;4.416;2023-09-07T13:49:08;5.43;;;3.70;;
19879;SDS011;10102;50.828;4.416;2023-09-07T13:51:34;4.82;;;3.47;;
19879;SDS011;10102;50.828;4.416;2023-09-07T13:54:04;4.38;;;3.30;;
19879;SDS011;10102;50.828;4.416;2023-09-07T13:56:31;10.00;;;3.67;;
19879;SDS011;10102;50.828;4.416;2023-09-07T13:58:57;7.85;;;3.60;;
19879;SDS011;10102;50.828;4.416;2023-09-07T14:01:23;3.58;;;3.25;;
19879;SDS011;10102;50.828;4.416;2023-09-07T14:03:50;5.45;;;3.53;;
19879;SDS011;10102;50.828;4.416;2023-09-07T14:06:16;3.70;;;3.15;;
19879;SDS011;10102;50.828;4.416;2023-09-07T14:08:43;6.22;;;4.15;;
19879;SDS011;10102;50.828;4.416;2023-09-07T14:11:10;8.32;;;3.30;;
19879;SDS011;10102;50.828;4.416;2023-09-07T14:13:36;4.13;;;3.00;;
19879;SDS011;10102;50.828;4.416;2023-09-07T14:16:02;6.30;;;3.58;;
19879;SDS011;10102;50.828;4.416;2023-09-07T14:18:28;5.57;;;3.40;;
19879;SDS011;10102;50.828;4.416;2023-09-07T14:20:54;4.70;;;3.20;;
19879;SDS011;10102;50.828;4.416;2023-09-07T14:23:23;7.35;;;3.25;;
19879;SDS011;10102;50.828;4.416;2023-09-07T14:25:53;5.97;;;3.10;;
19879;SDS011;10102;50.828;4.416;2023-09-07T14:28:19;8.35;;;3.53;;
19879;SDS011;10102;50.828;4.416;2023-09-07T14:30:47;5.03;;;2.95;;
19879;SDS011;10102;50.828;4.416;2023-09-07T14:33:13;6.07;;;2.88;;
19879;SDS011;10102;50.828;4.416;2023-09-07T14:35:39;5.32;;;3.13;;
19879;SDS011;10102;50.828;4.416;2023-09-07T14:38:05;5.78;;;3.03;;
19879;SDS011;10102;50.828;4.416;2023-09-07T14:40:31;7.63;;;3.40;;
19879;SDS011;10102;50.828;4.416;2023-09-07T14:45:28;3.55;;;3.25;;
19879;SDS011;10102;50.828;4.416;2023-09-07T14:47:54;6.72;;;3.22;;
19879;SDS011;10102;50.828;4.416;2023-09-07T14:50:22;5.88;;;3.35;;
19879;SDS011;10102;50.828;4.416;2023-09-07T14:52:48;6.22;;;3.60;;